createdAt,value
2019-04-23T00:01:49.986Z,2.63
2019-04-23T00:04:24.106Z,2.73
2019-04-23T00:09:33.019Z,2.70
2019-04-23T00:12:06.542Z,2.60
2019-04-23T00:14:47.960Z,2.87
2019-04-23T00:17:19.264Z,2.97
2019-04-23T00:19:43.296Z,2.70
2019-04-23T00:22:44.911Z,2.63
2019-04-23T00:25:43.618Z,2.80
2019-04-23T00:35:43.994Z,3.17
2019-04-23T00:38:18.257Z,2.70
2019-04-23T00:40:54.312Z,2.80
2019-04-23T00:43:22.907Z,2.83
2019-04-23T00:45:54.958Z,2.93
2019-04-23T00:50:54.324Z,2.80
2019-04-23T00:53:30.316Z,3.00
2019-04-23T00:56:11.605Z,3.00
2019-04-23T00:58:54.974Z,3.00
2019-04-23T01:01:11.280Z,2.70
2019-04-23T01:03:42.223Z,2.53
2019-04-23T01:06:19.405Z,3.10
2019-04-23T01:08:50.794Z,2.50
2019-04-23T01:11:19.888Z,2.80
2019-04-23T01:14:08.272Z,2.80
2019-04-23T01:16:22.738Z,2.50
2019-04-23T01:19:07.224Z,2.70
2019-04-23T01:21:28.532Z,2.97
2019-04-23T01:24:48.329Z,2.77
2019-04-23T01:30:26.647Z,3.20
2019-04-23T01:32:48.265Z,2.80
2019-04-23T01:35:33.463Z,3.20
2019-04-23T01:37:56.156Z,2.77
2019-04-23T01:40:32.268Z,2.90
2019-04-23T01:42:58.558Z,2.73
2019-04-23T01:45:42.123Z,2.60
2019-04-23T01:48:09.569Z,2.67
2019-04-23T01:50:48.293Z,2.87
2019-04-23T02:08:56.871Z,3.10
2019-04-23T02:11:28.503Z,3.00
2019-04-23T02:16:33.920Z,2.90
2019-04-23T02:19:03.689Z,2.87
2019-04-23T02:21:38.481Z,3.00
2019-04-23T02:24:12.177Z,2.50
2019-04-23T02:26:45.009Z,3.10
2019-04-23T02:29:29.875Z,2.53
2019-04-23T02:39:47.773Z,3.20
2019-04-23T02:42:19.101Z,2.97
2019-04-23T02:47:19.345Z,3.40
2019-04-23T02:50:18.036Z,3.10
2019-04-23T02:52:21.646Z,3.13
2019-04-23T02:57:20.205Z,3.10
2019-04-23T03:02:35.052Z,3.23
2019-04-23T03:04:57.056Z,3.20
2019-04-23T03:07:40.191Z,3.30
2019-04-23T03:15:41.118Z,3.17
2019-04-23T03:18:42.228Z,3.00
2019-04-23T03:24:34.651Z,3.10
2019-04-23T03:29:36.800Z,3.50
2019-04-23T03:42:11.581Z,3.97
2019-04-23T03:44:47.893Z,3.30
2019-04-23T03:49:55.768Z,3.20
2019-04-23T03:55:10.405Z,3.83
2019-04-23T04:00:02.568Z,3.63
2019-04-23T04:05:01.012Z,3.60
2019-04-23T04:08:05.023Z,3.80
2019-04-23T04:10:05.419Z,3.40
2019-04-23T04:15:31.229Z,5.93
2019-04-23T04:17:54.739Z,4.17
2019-04-23T04:20:29.246Z,4.40
2019-04-23T04:23:00.390Z,4.40
2019-04-23T04:25:39.307Z,4.07
2019-04-23T04:28:01.340Z,4.20
2019-04-23T04:33:29.798Z,4.30
2019-04-23T04:36:10.557Z,3.97
2019-04-23T04:41:01.236Z,4.53
2019-04-23T04:43:41.499Z,4.50
2019-04-23T04:46:12.769Z,4.37
2019-04-23T04:53:55.809Z,4.30
2019-04-23T04:56:20.942Z,4.63
2019-04-23T04:58:52.993Z,4.50
2019-04-23T05:05:20.654Z,4.57
2019-04-23T05:10:21.716Z,4.70
2019-04-23T05:13:19.480Z,4.83
2019-04-23T05:20:37.301Z,4.67
2019-04-23T05:25:37.858Z,4.60
2019-04-23T05:33:25.368Z,4.50
2019-04-23T05:38:37.094Z,4.33
2019-04-23T05:43:26.151Z,4.33
2019-04-23T05:46:09.772Z,4.77
2019-04-23T05:48:43.588Z,4.70
2019-04-23T05:51:10.856Z,5.30
2019-04-23T05:53:39.690Z,4.80
2019-04-23T05:56:15.615Z,4.93
2019-04-23T05:58:52.961Z,4.93
2019-04-23T06:01:51.163Z,5.20
2019-04-23T06:09:14.103Z,5.13
2019-04-23T06:11:51.207Z,5.00
2019-04-23T06:14:36.179Z,5.30
2019-04-23T06:16:55.254Z,4.57
2019-04-23T06:22:17.274Z,5.40
2019-04-23T06:32:02.251Z,5.53
2019-04-23T06:34:39.719Z,5.33
2019-04-23T06:37:09.364Z,5.67
2019-04-23T06:39:53.140Z,5.87
2019-04-23T06:42:14.432Z,5.90
2019-04-23T06:47:25.912Z,5.50
2019-04-23T06:52:30.189Z,6.20
2019-04-23T06:57:41.244Z,5.67
2019-04-23T07:00:14.024Z,5.57
2019-04-23T07:02:44.391Z,5.73
2019-04-23T07:05:18.892Z,5.57
2019-04-23T07:07:52.819Z,5.87
2019-04-23T07:10:21.933Z,6.60
2019-04-23T07:12:56.012Z,6.40
2019-04-23T07:15:39.204Z,6.47
2019-04-23T07:17:57.377Z,6.03
2019-04-23T07:20:35.972Z,6.30
2019-04-23T07:23:04.879Z,6.67
2019-04-23T07:25:44.345Z,6.63
2019-04-23T07:28:13.467Z,6.70
2019-04-23T07:30:39.611Z,6.30
2019-04-23T07:33:20.565Z,6.57
2019-04-23T07:35:47.195Z,5.80
2019-04-23T07:38:49.319Z,6.80
2019-04-23T07:41:23.626Z,7.13
2019-04-23T07:44:08.593Z,7.20
2019-04-23T07:47:00.449Z,7.50
2019-04-23T07:49:15.231Z,6.67
2019-04-23T07:52:01.157Z,7.37
2019-04-23T07:54:22.809Z,7.37
2019-04-23T07:57:02.873Z,7.37
2019-04-23T07:59:27.725Z,7.50
2019-04-23T08:01:57.498Z,7.00
2019-04-23T08:04:36.775Z,7.53
2019-04-23T08:07:10.460Z,7.50
2019-04-23T08:09:43.320Z,7.40
2019-04-23T08:14:51.571Z,7.87
2019-04-23T08:17:20.928Z,7.83
2019-04-23T08:25:12.489Z,7.50
2019-04-23T08:27:43.907Z,7.43
2019-04-23T08:30:17.359Z,7.23
2019-04-23T08:32:53.299Z,7.90
2019-04-23T08:35:19.946Z,8.10
2019-04-23T08:38:11.959Z,8.03
2019-04-23T08:40:36.742Z,8.20
2019-04-23T08:46:26.915Z,8.23
2019-04-23T08:49:06.652Z,8.13
2019-04-23T08:51:47.411Z,7.77
2019-04-23T08:54:11.660Z,7.70
2019-04-23T08:56:42.825Z,8.40
2019-04-23T08:59:14.934Z,9.10
2019-04-23T09:01:57.896Z,8.27
2019-04-23T09:04:18.611Z,8.20
2019-04-23T09:06:53.125Z,8.60
2019-04-23T09:09:20.179Z,9.30
2019-04-23T09:11:55.957Z,8.10
2019-04-23T09:14:23.122Z,8.80
2019-04-23T09:17:06.157Z,9.30
2019-04-23T09:19:51.865Z,8.77
2019-04-23T09:22:28.248Z,8.50
2019-04-23T09:24:48.835Z,8.73
2019-04-23T09:27:26.298Z,8.10
2019-04-23T09:32:36.119Z,8.60
2019-04-23T09:35:27.895Z,8.63
2019-04-23T09:38:25.206Z,9.17
2019-04-23T09:41:33.054Z,8.20
2019-04-23T09:44:51.091Z,8.90
2019-04-23T09:47:13.978Z,8.33
2019-04-23T09:49:50.187Z,9.23
2019-04-23T09:55:04.652Z,8.17
2019-04-23T09:57:24.307Z,8.07
2019-04-23T09:59:58.289Z,8.50
2019-04-23T10:02:27.312Z,8.10
2019-04-23T10:04:59.827Z,7.60
2019-04-23T10:07:39.643Z,7.77
2019-04-23T10:09:59.511Z,8.37
2019-04-23T10:12:35.629Z,8.60
2019-04-23T10:15:16.501Z,7.80
2019-04-23T10:17:42.326Z,7.50
2019-04-23T10:20:13.265Z,8.43
2019-04-23T10:22:44.304Z,8.70
2019-04-23T10:25:15.393Z,8.63
2019-04-23T10:27:53.156Z,8.20
2019-04-23T10:30:23.430Z,8.27
2019-04-23T10:32:55.901Z,8.20
2019-04-23T10:35:38.729Z,8.20
2019-04-23T10:38:06.638Z,7.83
2019-04-23T10:40:36.476Z,8.17
2019-04-23T10:43:11.062Z,8.03
2019-04-23T10:46:15.385Z,8.27
2019-04-23T10:49:31.959Z,7.73
2019-04-23T10:52:06.996Z,8.93
2019-04-23T10:54:35.845Z,8.70
2019-04-23T10:57:01.080Z,9.23
2019-04-23T11:04:59.634Z,8.47
2019-04-23T11:07:30.801Z,8.20
2019-04-23T11:10:16.088Z,7.97
2019-04-23T11:12:48.936Z,8.30
2019-04-23T11:15:44.321Z,8.30
2019-04-23T11:18:07.144Z,8.67
2019-04-23T11:20:43.753Z,8.80
2019-04-23T11:23:29.053Z,8.63
2019-04-23T11:26:05.527Z,9.33
2019-04-23T11:31:25.067Z,8.23
2019-04-23T11:34:00.410Z,8.27
2019-04-23T11:36:48.096Z,9.03
2019-04-23T11:38:58.526Z,8.70
2019-04-23T11:41:51.318Z,8.20
2019-04-23T11:44:22.260Z,8.93
2019-04-23T11:54:53.489Z,8.40
2019-04-23T12:00:13.862Z,9.63
2019-04-23T12:03:33.422Z,9.53
2019-04-23T12:09:18.929Z,9.57
2019-04-23T12:14:37.136Z,9.13
2019-04-23T12:17:13.390Z,9.20
2019-04-23T12:22:22.268Z,10.37
2019-04-23T12:27:30.669Z,9.47
2019-04-23T12:40:51.239Z,9.27
2019-04-23T12:43:18.983Z,9.87
2019-04-23T12:56:11.615Z,8.83
2019-04-23T12:58:34.111Z,10.00
2019-04-23T13:01:16.355Z,8.20
2019-04-23T13:03:39.294Z,8.73
2019-04-23T13:06:17.266Z,8.33
2019-04-23T13:08:54.512Z,8.70
2019-04-23T13:11:31.067Z,8.90
2019-04-23T13:14:00.838Z,10.17
2019-04-23T13:16:37.650Z,8.13
2019-04-23T13:19:15.059Z,8.50
2019-04-23T13:24:32.817Z,9.23
2019-04-23T13:27:15.814Z,9.03
2019-04-23T13:29:42.952Z,8.60
2019-04-23T13:32:15.260Z,8.17
2019-04-23T13:34:58.878Z,8.77
2019-04-23T13:37:31.528Z,9.03
2019-04-23T13:39:52.995Z,8.97
2019-04-23T13:42:42.989Z,9.10
2019-04-23T13:45:07.344Z,8.27
2019-04-23T13:47:53.455Z,8.67
2019-04-23T13:50:17.544Z,8.17
2019-04-23T13:55:09.436Z,8.50
2019-04-23T13:58:02.646Z,8.13
2019-04-23T14:00:26.929Z,8.53
2019-04-23T14:02:49.362Z,8.80
2019-04-23T14:10:40.061Z,8.27
2019-04-23T14:13:28.526Z,8.20
2019-04-23T14:18:43.405Z,8.17
2019-04-23T14:20:46.884Z,8.50
2019-04-23T14:23:39.692Z,9.03
2019-04-23T14:26:13.175Z,7.83
2019-04-23T14:28:35.387Z,8.40
2019-04-23T14:31:05.942Z,9.60
2019-04-23T14:36:07.682Z,9.27
2019-04-23T14:41:21.381Z,8.70
2019-04-23T14:43:56.379Z,8.63
2019-04-23T14:46:35.030Z,8.40
2019-04-23T14:48:57.660Z,8.20
2019-04-23T14:51:47.734Z,8.50
2019-04-23T14:56:42.135Z,8.60
2019-04-23T14:59:07.148Z,8.30
2019-04-23T15:01:46.458Z,9.10
2019-04-23T15:04:11.078Z,8.83
2019-04-23T15:06:54.819Z,8.37
2019-04-23T15:09:27.607Z,7.90
2019-04-23T15:12:01.777Z,8.03
2019-04-23T15:14:34.269Z,8.53
2019-04-23T15:17:10.189Z,8.07
2019-04-23T15:22:35.115Z,8.37
2019-04-23T15:25:13.645Z,8.37
2019-04-23T15:29:52.576Z,7.37
2019-04-23T15:32:44.215Z,7.43
2019-04-23T15:35:18.463Z,8.03
2019-04-23T15:42:53.793Z,6.70
2019-04-23T15:45:19.676Z,7.00
2019-04-23T15:55:27.798Z,7.80
2019-04-23T16:00:31.319Z,7.80
2019-04-23T16:02:41.325Z,8.30
2019-04-23T16:05:14.839Z,7.60
2019-04-23T16:08:06.109Z,8.20
2019-04-23T16:10:57.213Z,7.80
2019-04-23T16:13:19.946Z,7.97
2019-04-23T16:16:03.594Z,6.70
2019-04-23T16:21:54.685Z,7.60
2019-04-23T16:24:08.210Z,7.73
2019-04-23T16:26:52.453Z,7.67
2019-04-23T16:34:33.633Z,7.17
2019-04-23T16:37:13.742Z,8.17
2019-04-23T16:39:37.858Z,7.13
2019-04-23T16:42:18.216Z,7.70
2019-04-23T16:44:59.672Z,6.87
2019-04-23T16:47:26.152Z,8.03
2019-04-23T16:54:58.552Z,8.10
2019-04-23T17:00:15.151Z,7.30
2019-04-23T17:02:34.127Z,8.30
2019-04-23T17:05:12.409Z,8.20
2019-04-23T17:07:54.038Z,8.30
2019-04-23T17:10:28.401Z,7.83
2019-04-23T17:13:00.089Z,8.37
2019-04-23T17:15:28.016Z,7.70
2019-04-23T17:17:57.091Z,8.33
2019-04-23T17:20:31.291Z,8.27
2019-04-23T17:23:05.232Z,8.10
2019-04-23T17:25:36.644Z,8.20
2019-04-23T17:28:11.430Z,7.63
2019-04-23T17:41:50.119Z,7.90
2019-04-23T17:44:23.596Z,7.30
2019-04-23T17:46:50.531Z,8.00
2019-04-23T17:49:28.658Z,7.50
2019-04-23T17:51:57.510Z,8.13
2019-04-23T17:54:53.464Z,7.90
2019-04-23T17:57:10.814Z,8.10
2019-04-23T18:00:16.000Z,8.00
2019-04-23T18:05:08.193Z,8.33
2019-04-23T18:12:53.711Z,9.20
2019-04-23T18:15:21.985Z,8.80
2019-04-23T18:17:54.729Z,8.57
2019-04-23T18:20:49.363Z,7.93
2019-04-23T18:23:13.792Z,8.50
2019-04-23T18:25:59.601Z,8.50
2019-04-23T18:28:58.856Z,8.80
2019-04-23T18:31:36.708Z,9.17
2019-04-23T18:34:14.645Z,9.10
2019-04-23T18:36:45.885Z,9.10
2019-04-23T18:39:22.668Z,8.47
2019-04-23T18:42:03.972Z,8.87
2019-04-23T18:44:33.180Z,8.83
2019-04-23T18:46:59.091Z,9.40
2019-04-23T18:52:17.943Z,10.27
2019-04-23T18:54:40.723Z,9.10
2019-04-23T18:57:12.687Z,9.13
2019-04-23T19:05:34.577Z,9.87
2019-04-23T19:08:23.206Z,9.57
2019-04-23T19:11:15.872Z,9.97
2019-04-23T19:13:45.900Z,10.60
2019-04-23T19:16:26.661Z,10.10
2019-04-23T19:18:56.291Z,9.33
2019-04-23T19:21:47.446Z,10.00
2019-04-23T19:23:55.609Z,10.67
2019-04-23T19:26:55.214Z,10.23
2019-04-23T19:29:13.629Z,9.67
2019-04-23T19:32:00.762Z,11.40
2019-04-23T19:42:15.553Z,11.67
2019-04-23T19:44:57.374Z,11.20
2019-04-23T19:47:45.974Z,11.77
2019-04-23T19:50:15.273Z,11.30
2019-04-23T19:53:04.316Z,11.43
2019-04-23T19:55:17.493Z,11.40
2019-04-23T20:00:28.902Z,11.80
2019-04-23T20:03:22.248Z,12.20
2019-04-23T20:05:41.398Z,12.07
2019-04-23T20:08:17.409Z,12.57
2019-04-23T20:13:19.611Z,12.30
2019-04-23T20:18:47.555Z,12.07
2019-04-23T20:21:03.360Z,12.93
2019-04-23T20:24:04.228Z,12.93
2019-04-23T20:26:17.103Z,12.67
2019-04-23T20:34:32.062Z,12.57
2019-04-23T20:36:53.285Z,13.73
2019-04-23T20:39:55.015Z,13.70
2019-04-23T20:45:02.612Z,13.17
2019-04-23T20:47:34.488Z,14.00
2019-04-23T20:49:56.679Z,13.63
2019-04-23T20:52:35.413Z,13.73
2019-04-23T20:55:08.580Z,13.90
2019-04-23T20:57:57.145Z,14.40
2019-04-23T21:01:11.232Z,13.33
2019-04-23T21:06:08.757Z,14.80
2019-04-23T21:09:04.485Z,13.37
2019-04-23T21:11:14.805Z,13.83
2019-04-23T21:16:21.154Z,14.27
2019-04-23T21:19:10.390Z,14.00
2019-04-23T21:21:40.255Z,13.93
2019-04-23T21:26:35.207Z,14.03
2019-04-23T21:28:58.711Z,13.23
2019-04-23T21:36:51.055Z,14.30
2019-04-23T21:39:53.644Z,14.63
2019-04-23T21:42:33.132Z,14.77
2019-04-23T21:45:02.189Z,14.03
2019-04-23T21:47:39.404Z,14.10
2019-04-23T21:50:19.209Z,14.80
2019-04-23T21:52:51.235Z,15.07
2019-04-23T21:55:26.536Z,14.73
2019-04-23T21:57:59.660Z,14.30
2019-04-23T22:00:24.293Z,14.03
2019-04-23T22:03:09.907Z,14.50
2019-04-23T22:05:47.926Z,15.07
2019-04-23T22:08:10.650Z,14.40
2019-04-23T22:10:52.687Z,14.47
2019-04-23T22:13:29.242Z,15.30
2019-04-23T22:18:58.796Z,15.20
2019-04-23T22:21:28.290Z,15.67
2019-04-23T22:24:02.770Z,16.03
2019-04-23T22:26:36.242Z,15.80
2019-04-23T22:29:14.263Z,15.47
2019-04-23T22:34:33.931Z,15.47
2019-04-23T22:37:04.262Z,15.77
2019-04-23T22:39:32.655Z,16.37
2019-04-23T22:47:05.933Z,16.80
2019-04-23T22:50:00.568Z,16.33
2019-04-23T22:55:13.997Z,16.20
2019-04-23T22:57:56.486Z,15.90
2019-04-23T23:00:14.708Z,15.77
2019-04-23T23:06:12.779Z,16.07
2019-04-23T23:08:20.827Z,16.33
2019-04-23T23:11:00.390Z,16.90
2019-04-23T23:13:35.784Z,16.97
2019-04-23T23:18:48.720Z,16.50
2019-04-23T23:21:11.985Z,16.07
2019-04-23T23:23:49.794Z,16.47
2019-04-23T23:26:14.366Z,16.80
2019-04-23T23:28:44.669Z,17.00
2019-04-23T23:31:24.369Z,16.30
2019-04-23T23:34:05.197Z,17.30
2019-04-23T23:36:28.725Z,17.53
2019-04-23T23:39:21.166Z,18.63
2019-04-23T23:41:46.646Z,17.30
2019-04-23T23:44:28.405Z,18.10
2019-04-23T23:47:01.683Z,17.87
2019-04-23T23:49:20.382Z,17.33
2019-04-23T23:51:49.464Z,17.73
2019-04-23T23:57:13.903Z,18.50
2019-04-23T23:59:32.463Z,17.90
